sensor_id;sensor_type;location;lat;lon;timestamp;pressure;altitude;pressure_sealevel;temperature;humidity
34979;BME280;21185;50.978;13.720;2023-03-04T00:00:50;98666.03;;;1.66;75.08
34979;BME280;21185;50.978;13.720;2023-03-04T00:05:52;98667.69;;;1.67;74.81
34979;BME280;21185;50.978;13.720;2023-03-04T00:10:54;98674.63;;;1.65;74.90
34979;BME280;21185;50.978;13.720;2023-03-04T00:15:56;98675.47;;;1.66;75.14
34979;BME280;21185;50.978;13.720;2023-03-04T00:20:57;98668.59;;;1.66;75.04
34979;BME280;21185;50.978;13.720;2023-03-04T00:25:59;98661.84;;;1.65;75.32
34979;BME280;21185;50.978;13.720;2023-03-04T00:31:01;98649.97;;;1.64;75.28
34979;BME280;21185;50.978;13.720;2023-03-04T00:36:03;98651.63;;;1.65;75.46
34979;BME280;21185;50.978;13.720;2023-03-04T00:41:06;98645.56;;;1.66;75.46
34979;BME280;21185;50.978;13.720;2023-03-04T00:46:07;98648.25;;;1.65;75.38
34979;BME280;21185;50.978;13.720;2023-03-04T00:51:09;98646.41;;;1.67;75.61
34979;BME280;21185;50.978;13.720;2023-03-04T00:56:11;98635.97;;;1.70;75.47
34979;BME280;21185;50.978;13.720;2023-03-04T01:01:13;98635.78;;;1.73;75.32
34979;BME280;21185;50.978;13.720;2023-03-04T01:06:18;98623.09;;;1.71;75.56
34979;BME280;21185;50.978;13.720;2023-03-04T01:11:20;98617.97;;;1.71;75.61
34979;BME280;21185;50.978;13.720;2023-03-04T01:16:22;98612.84;;;1.71;75.48
34979;BME280;21185;50.978;13.720;2023-03-04T01:21:24;98610.28;;;1.71;75.82
34979;BME280;21185;50.978;13.720;2023-03-04T01:26:26;98605.91;;;1.73;75.78
34979;BME280;21185;50.978;13.720;2023-03-04T01:31:28;98588.91;;;1.72;75.80
34979;BME280;21185;50.978;13.720;2023-03-04T01:36:30;98594.03;;;1.72;75.85
34979;BME280;21185;50.978;13.720;2023-03-04T01:41:32;98572.53;;;1.75;75.81
34979;BME280;21185;50.978;13.720;2023-03-04T01:46:34;98564.88;;;1.75;75.66
34979;BME280;21185;50.978;13.720;2023-03-04T01:51:35;98562.31;;;1.75;75.77
34979;BME280;21185;50.978;13.720;2023-03-04T01:56:39;98563.13;;;1.75;75.92
34979;BME280;21185;50.978;13.720;2023-03-04T02:01:46;98559.66;;;1.76;75.89
34979;BME280;21185;50.978;13.720;2023-03-04T02:06:50;98554.53;;;1.76;75.77
34979;BME280;21185;50.978;13.720;2023-03-04T02:11:52;98559.56;;;1.78;75.62
34979;BME280;21185;50.978;13.720;2023-03-04T02:16:55;98550.94;;;1.79;75.64
34979;BME280;21185;50.978;13.720;2023-03-04T02:21:57;98544.91;;;1.80;75.51
34979;BME280;21185;50.978;13.720;2023-03-04T02:26:59;98538.25;;;1.77;75.68
34979;BME280;21185;50.978;13.720;2023-03-04T02:32:02;98537.44;;;1.77;75.64
34979;BME280;21185;50.978;13.720;2023-03-04T02:37:09;98524.56;;;1.78;75.63
34979;BME280;21185;50.978;13.720;2023-03-04T02:42:12;98509.91;;;1.80;75.67
34979;BME280;21185;50.978;13.720;2023-03-04T02:47:17;98518.50;;;1.79;75.75
34979;BME280;21185;50.978;13.720;2023-03-04T02:52:25;98515.97;;;1.79;75.46
34979;BME280;21185;50.978;13.720;2023-03-04T02:57:27;98498.97;;;1.78;75.48
34979;BME280;21185;50.978;13.720;2023-03-04T03:02:29;98498.88;;;1.80;75.51
34979;BME280;21185;50.978;13.720;2023-03-04T03:07:31;98494.78;;;1.77;75.69
34979;BME280;21185;50.978;13.720;2023-03-04T03:12:36;98492.31;;;1.76;75.81
34979;BME280;21185;50.978;13.720;2023-03-04T03:17:38;98488.72;;;1.78;75.86
34979;BME280;21185;50.978;13.720;2023-03-04T03:22:41;98489.66;;;1.77;75.93
34979;BME280;21185;50.978;13.720;2023-03-04T03:27:43;98487.19;;;1.76;76.03
34979;BME280;21185;50.978;13.720;2023-03-04T03:32:47;98494.06;;;1.75;75.74
34979;BME280;21185;50.978;13.720;2023-03-04T03:37:49;98488.00;;;1.76;75.92
34979;BME280;21185;50.978;13.720;2023-03-04T03:42:51;98471.03;;;1.75;75.82
34979;BME280;21185;50.978;13.720;2023-03-04T03:47:53;98475.22;;;1.76;76.02
34979;BME280;21185;50.978;13.720;2023-03-04T03:52:55;98470.09;;;1.76;75.95
34979;BME280;21185;50.978;13.720;2023-03-04T03:57:57;98471.75;;;1.77;76.00
34979;BME280;21185;50.978;13.720;2023-03-04T04:02:59;98476.97;;;1.76;75.86
34979;BME280;21185;50.978;13.720;2023-03-04T04:08:02;98472.66;;;1.76;75.89
34979;BME280;21185;50.978;13.720;2023-03-04T04:13:03;98475.22;;;1.76;75.87
34979;BME280;21185;50.978;13.720;2023-03-04T04:18:06;98483.91;;;1.74;76.03
34979;BME280;21185;50.978;13.720;2023-03-04T04:23:08;98483.81;;;1.75;75.99
34979;BME280;21185;50.978;13.720;2023-03-04T04:28:10;98477.78;;;1.76;75.96
34979;BME280;21185;50.978;13.720;2023-03-04T04:33:12;98476.03;;;1.77;75.87
34979;BME280;21185;50.978;13.720;2023-03-04T04:38:14;98486.19;;;1.78;75.94
34979;BME280;21185;50.978;13.720;2023-03-04T04:43:16;98475.94;;;1.78;75.96
34979;BME280;21185;50.978;13.720;2023-03-04T04:48:18;98470.63;;;1.81;75.95
34979;BME280;21185;50.978;13.720;2023-03-04T04:53:20;98470.41;;;1.84;76.05
34979;BME280;21185;50.978;13.720;2023-03-04T04:58:22;98462.03;;;1.82;75.76
34979;BME280;21185;50.978;13.720;2023-03-04T05:03:24;98467.03;;;1.84;75.91
34979;BME280;21185;50.978;13.720;2023-03-04T05:08:25;98456.91;;;1.82;75.89
34979;BME280;21185;50.978;13.720;2023-03-04T05:13:27;98474.72;;;1.84;75.87
34979;BME280;21185;50.978;13.720;2023-03-04T05:18:29;98469.59;;;1.84;75.77
34979;BME280;21185;50.978;13.720;2023-03-04T05:23:34;98471.94;;;1.87;75.80
34979;BME280;21185;50.978;13.720;2023-03-04T05:28:37;98466.72;;;1.88;75.70
34979;BME280;21185;50.978;13.720;2023-03-04T05:33:39;98464.88;;;1.90;75.74
34979;BME280;21185;50.978;13.720;2023-03-04T05:38:40;98462.31;;;1.90;75.88
34979;BME280;21185;50.978;13.720;2023-03-04T05:43:43;98462.31;;;1.90;75.98
34979;BME280;21185;50.978;13.720;2023-03-04T05:48:55;98462.84;;;1.95;75.86
34979;BME280;21185;50.978;13.720;2023-03-04T05:53:57;98450.75;;;1.98;75.69
34979;BME280;21185;50.978;13.720;2023-03-04T05:58:59;98441.22;;;2.00;75.61
34979;BME280;21185;50.978;13.720;2023-03-04T06:04:01;98452.28;;;2.00;75.65
34979;BME280;21185;50.978;13.720;2023-03-04T06:09:03;98452.91;;;2.04;75.69
34979;BME280;21185;50.978;13.720;2023-03-04T06:14:05;98447.56;;;2.07;75.59
34979;BME280;21185;50.978;13.720;2023-03-04T06:19:10;98450.03;;;2.08;75.63
34979;BME280;21185;50.978;13.720;2023-03-04T06:24:12;98439.69;;;2.10;75.58
34979;BME280;21185;50.978;13.720;2023-03-04T06:29:14;98448.88;;;2.12;75.65
34979;BME280;21185;50.978;13.720;2023-03-04T06:34:19;98446.22;;;2.14;75.70
34979;BME280;21185;50.978;13.720;2023-03-04T06:39:21;98447.88;;;2.15;75.67
34979;BME280;21185;50.978;13.720;2023-03-04T06:44:26;98445.91;;;2.18;75.65
34979;BME280;21185;50.978;13.720;2023-03-04T06:49:28;98450.94;;;2.20;75.77
34979;BME280;21185;50.978;13.720;2023-03-04T06:54:30;98439.66;;;2.22;75.92
34979;BME280;21185;50.978;13.720;2023-03-04T06:59:32;98442.00;;;2.25;75.80
34979;BME280;21185;50.978;13.720;2023-03-04T07:04:34;98436.66;;;2.28;75.93
34979;BME280;21185;50.978;13.720;2023-03-04T07:09:36;98444.13;;;2.32;76.01
34979;BME280;21185;50.978;13.720;2023-03-04T07:14:42;98443.31;;;2.31;76.13
34979;BME280;21185;50.978;13.720;2023-03-04T07:19:50;98429.59;;;2.32;76.56
34979;BME280;21185;50.978;13.720;2023-03-04T07:24:52;98438.69;;;2.36;76.16
34979;BME280;21185;50.978;13.720;2023-03-04T07:29:54;98437.78;;;2.37;76.85
34979;BME280;21185;50.978;13.720;2023-03-04T07:34:56;98441.03;;;2.39;76.62
34979;BME280;21185;50.978;13.720;2023-03-04T07:39:57;98438.28;;;2.42;76.82
34979;BME280;21185;50.978;13.720;2023-03-04T07:44:59;98431.31;;;2.44;77.16
34979;BME280;21185;50.978;13.720;2023-03-04T07:50:02;98445.63;;;2.47;77.03
34979;BME280;21185;50.978;13.720;2023-03-04T07:55:04;98431.78;;;2.49;77.08
34979;BME280;21185;50.978;13.720;2023-03-04T08:00:07;98426.34;;;2.54;77.21
34979;BME280;21185;50.978;13.720;2023-03-04T08:05:12;98433.72;;;2.58;77.35
34979;BME280;21185;50.978;13.720;2023-03-04T08:10:15;98426.63;;;2.62;77.32
34979;BME280;21185;50.978;13.720;2023-03-04T08:15:16;98428.03;;;2.66;77.50
34979;BME280;21185;50.978;13.720;2023-03-04T08:20:20;98428.44;;;2.73;77.44
34979;BME280;21185;50.978;13.720;2023-03-04T08:25:21;98413.91;;;2.84;77.47
34979;BME280;21185;50.978;13.720;2023-03-04T08:30:24;98419.91;;;2.96;77.61
34979;BME280;21185;50.978;13.720;2023-03-04T08:35:26;98413.63;;;3.00;77.88
34979;BME280;21185;50.978;13.720;2023-03-04T08:40:28;98409.91;;;3.04;77.70
34979;BME280;21185;50.978;13.720;2023-03-04T08:45:31;98413.66;;;3.11;77.86
34979;BME280;21185;50.978;13.720;2023-03-04T08:50:34;98399.00;;;3.13;78.10
34979;BME280;21185;50.978;13.720;2023-03-04T08:55:38;98409.13;;;3.15;78.14
34979;BME280;21185;50.978;13.720;2023-03-04T09:00:42;98406.13;;;3.21;78.35
34979;BME280;21185;50.978;13.720;2023-03-04T09:05:46;98407.41;;;3.27;78.44
34979;BME280;21185;50.978;13.720;2023-03-04T09:10:52;98407.19;;;3.30;78.46
34979;BME280;21185;50.978;13.720;2023-03-04T09:15:54;98405.09;;;3.35;78.42
34979;BME280;21185;50.978;13.720;2023-03-04T09:20:56;98409.88;;;3.39;78.50
34979;BME280;21185;50.978;13.720;2023-03-04T09:25:59;98413.03;;;3.43;78.47
34979;BME280;21185;50.978;13.720;2023-03-04T09:31:01;98399.06;;;3.47;78.40
34979;BME280;21185;50.978;13.720;2023-03-04T09:36:03;98405.59;;;3.51;78.44
34979;BME280;21185;50.978;13.720;2023-03-04T09:41:24;98399.19;;;3.56;78.49
34979;BME280;21185;50.978;13.720;2023-03-04T09:46:37;98393.72;;;3.61;78.33
34979;BME280;21185;50.978;13.720;2023-03-04T09:52:09;98395.56;;;3.59;78.41
34979;BME280;21185;50.978;13.720;2023-03-04T10:07:47;98374.34;;;3.68;78.49
34979;BME280;21185;50.978;13.720;2023-03-04T10:12:52;98375.63;;;3.74;78.39
34979;BME280;21185;50.978;13.720;2023-03-04T10:18:03;98375.63;;;3.74;78.49
34979;BME280;21185;50.978;13.720;2023-03-04T10:23:15;98369.47;;;3.76;78.43
34979;BME280;21185;50.978;13.720;2023-03-04T10:28:23;98375.75;;;3.72;78.46
34979;BME280;21185;50.978;13.720;2023-03-04T10:33:29;98366.19;;;3.74;78.69
34979;BME280;21185;50.978;13.720;2023-03-04T10:38:35;98362.91;;;3.83;78.76
34979;BME280;21185;50.978;13.720;2023-03-04T10:43:38;98358.59;;;3.95;78.60
34979;BME280;21185;50.978;13.720;2023-03-04T10:48:42;98359.16;;;3.99;78.46
34979;BME280;21185;50.978;13.720;2023-03-04T10:53:48;98364.53;;;4.07;78.53
34979;BME280;21185;50.978;13.720;2023-03-04T10:58:50;98356.34;;;4.13;78.39
34979;BME280;21185;50.978;13.720;2023-03-04T11:03:53;98350.63;;;4.09;78.51
34979;BME280;21185;50.978;13.720;2023-03-04T11:08:58;98355.19;;;4.06;78.43
34979;BME280;21185;50.978;13.720;2023-03-04T11:14:27;98353.81;;;4.02;78.34
34979;BME280;21185;50.978;13.720;2023-03-04T11:19:41;98347.97;;;4.00;78.71
34979;BME280;21185;50.978;13.720;2023-03-04T11:24:54;98344.69;;;3.98;78.60
34979;BME280;21185;50.978;13.720;2023-03-04T11:36:07;98341.31;;;3.97;78.61
34979;BME280;21185;50.978;13.720;2023-03-04T11:41:11;98342.84;;;4.00;78.85
34979;BME280;21185;50.978;13.720;2023-03-04T11:46:30;98330.56;;;4.03;78.77
34979;BME280;21185;50.978;13.720;2023-03-04T11:51:50;98318.19;;;4.08;78.73
34979;BME280;21185;50.978;13.720;2023-03-04T11:57:20;98326.47;;;4.12;78.78
34979;BME280;21185;50.978;13.720;2023-03-04T12:02:42;98313.88;;;4.09;78.80
34979;BME280;21185;50.978;13.720;2023-03-04T12:14:01;98317.47;;;4.17;78.86
34979;BME280;21185;50.978;13.720;2023-03-04T12:25:20;98298.44;;;4.20;78.79
34979;BME280;21185;50.978;13.720;2023-03-04T12:30:37;98291.31;;;4.23;78.39
34979;BME280;21185;50.978;13.720;2023-03-04T12:35:45;98283.09;;;4.30;78.59
34979;BME280;21185;50.978;13.720;2023-03-04T12:57:43;98270.09;;;4.42;78.01
34979;BME280;21185;50.978;13.720;2023-03-04T13:13:38;98251.13;;;4.54;77.71
34979;BME280;21185;50.978;13.720;2023-03-04T13:18:41;98249.59;;;4.52;77.66
34979;BME280;21185;50.978;13.720;2023-03-04T13:23:43;98257.44;;;4.50;77.38
34979;BME280;21185;50.978;13.720;2023-03-04T13:28:45;98255.88;;;4.59;77.57
34979;BME280;21185;50.978;13.720;2023-03-04T13:33:50;98246.72;;;4.66;77.54
34979;BME280;21185;50.978;13.720;2023-03-04T13:39:02;98243.66;;;4.72;77.35
34979;BME280;21185;50.978;13.720;2023-03-04T13:49:33;98227.97;;;4.75;76.87
34979;BME280;21185;50.978;13.720;2023-03-04T13:54:35;98233.56;;;4.80;76.77
34979;BME280;21185;50.978;13.720;2023-03-04T13:59:44;98221.94;;;4.86;76.47
34979;BME280;21185;50.978;13.720;2023-03-04T14:04:59;98229.97;;;4.93;76.25
34979;BME280;21185;50.978;13.720;2023-03-04T14:20:47;98219.81;;;4.91;75.76
34979;BME280;21185;50.978;13.720;2023-03-04T14:25:49;98224.44;;;4.97;76.14
34979;BME280;21185;50.978;13.720;2023-03-04T14:30:54;98215.53;;;5.01;75.60
34979;BME280;21185;50.978;13.720;2023-03-04T14:36:01;98212.00;;;5.02;75.95
34979;BME280;21185;50.978;13.720;2023-03-04T14:46:12;98205.81;;;5.05;75.88
34979;BME280;21185;50.978;13.720;2023-03-04T14:56:34;98201.78;;;5.12;75.70
34979;BME280;21185;50.978;13.720;2023-03-04T15:01:37;98201.50;;;5.15;75.63
34979;BME280;21185;50.978;13.720;2023-03-04T15:06:53;98203.13;;;5.16;75.75
34979;BME280;21185;50.978;13.720;2023-03-04T15:11:59;98196.63;;;5.12;75.76
34979;BME280;21185;50.978;13.720;2023-03-04T15:17:03;98192.81;;;5.06;75.83
34979;BME280;21185;50.978;13.720;2023-03-04T15:22:06;98199.03;;;5.04;75.85
34979;BME280;21185;50.978;13.720;2023-03-04T15:27:10;98195.91;;;5.00;76.00
34979;BME280;21185;50.978;13.720;2023-03-04T15:32:13;98205.25;;;5.01;75.98
34979;BME280;21185;50.978;13.720;2023-03-04T15:37:22;98200.22;;;5.00;75.97
34979;BME280;21185;50.978;13.720;2023-03-04T15:42:25;98196.03;;;4.99;75.83
34979;BME280;21185;50.978;13.720;2023-03-04T15:47:28;98195.34;;;4.97;75.97
34979;BME280;21185;50.978;13.720;2023-03-04T15:52:31;98204.13;;;4.94;75.73
34979;BME280;21185;50.978;13.720;2023-03-04T15:57:34;98206.00;;;4.92;75.52
34979;BME280;21185;50.978;13.720;2023-03-04T16:02:36;98209.66;;;4.90;75.49
34979;BME280;21185;50.978;13.720;2023-03-04T16:07:38;98208.84;;;4.89;75.26
34979;BME280;21185;50.978;13.720;2023-03-04T16:12:43;98208.16;;;4.87;75.47
34979;BME280;21185;50.978;13.720;2023-03-04T16:17:46;98207.34;;;4.86;75.17
34979;BME280;21185;50.978;13.720;2023-03-04T16:22:53;98203.28;;;4.84;75.06
34979;BME280;21185;50.978;13.720;2023-03-04T16:27:57;98199.06;;;4.83;75.10
34979;BME280;21185;50.978;13.720;2023-03-04T16:33:04;98213.00;;;4.80;74.98
34979;BME280;21185;50.978;13.720;2023-03-04T16:38:27;98214.88;;;4.78;75.03
34979;BME280;21185;50.978;13.720;2023-03-04T16:43:34;98213.38;;;4.76;74.92
34979;BME280;21185;50.978;13.720;2023-03-04T16:48:36;98213.63;;;4.73;74.81
34979;BME280;21185;50.978;13.720;2023-03-04T16:53:42;98222.16;;;4.73;75.02
34979;BME280;21185;50.978;13.720;2023-03-04T16:58:45;98215.50;;;4.71;74.96
34979;BME280;21185;50.978;13.720;2023-03-04T17:03:48;98218.03;;;4.61;75.02
34979;BME280;21185;50.978;13.720;2023-03-04T17:08:49;98224.72;;;4.52;75.19
34979;BME280;21185;50.978;13.720;2023-03-04T17:13:51;98217.41;;;4.48;75.34
34979;BME280;21185;50.978;13.720;2023-03-04T17:18:54;98225.34;;;4.45;75.41
34979;BME280;21185;50.978;13.720;2023-03-04T17:23:56;98228.03;;;4.43;75.66
34979;BME280;21185;50.978;13.720;2023-03-04T17:28:58;98226.41;;;4.42;75.59
34979;BME280;21185;50.978;13.720;2023-03-04T17:34:00;98231.00;;;4.39;75.72
34979;BME280;21185;50.978;13.720;2023-03-04T17:39:03;98238.81;;;4.37;75.99
34979;BME280;21185;50.978;13.720;2023-03-04T17:44:05;98238.25;;;4.34;75.91
34979;BME280;21185;50.978;13.720;2023-03-04T17:49:10;98237.44;;;4.33;75.66
34979;BME280;21185;50.978;13.720;2023-03-04T17:54:12;98236.75;;;4.31;75.96
34979;BME280;21185;50.978;13.720;2023-03-04T17:59:15;98238.38;;;4.32;75.87
34979;BME280;21185;50.978;13.720;2023-03-04T18:04:18;98232.66;;;4.29;75.88
34979;BME280;21185;50.978;13.720;2023-03-04T18:09:19;98241.88;;;4.31;75.51
34979;BME280;21185;50.978;13.720;2023-03-04T18:14:24;98241.88;;;4.31;75.70
34979;BME280;21185;50.978;13.720;2023-03-04T18:19:26;98233.25;;;4.32;75.49
34979;BME280;21185;50.978;13.720;2023-03-04T18:24:28;98245.38;;;4.30;75.54
34979;BME280;21185;50.978;13.720;2023-03-04T18:29:39;98237.81;;;4.29;75.36
34979;BME280;21185;50.978;13.720;2023-03-04T18:34:41;98234.44;;;4.28;75.36
34979;BME280;21185;50.978;13.720;2023-03-04T18:39:43;98239.69;;;4.27;75.32
34979;BME280;21185;50.978;13.720;2023-03-04T18:44:45;98238.06;;;4.26;75.29
34979;BME280;21185;50.978;13.720;2023-03-04T18:49:47;98240.75;;;4.24;75.37
34979;BME280;21185;50.978;13.720;2023-03-04T18:54:49;98237.25;;;4.25;75.35
34979;BME280;21185;50.978;13.720;2023-03-04T18:59:55;98244.94;;;4.25;75.30
34979;BME280;21185;50.978;13.720;2023-03-04T19:05:09;98239.13;;;4.23;75.21
34979;BME280;21185;50.978;13.720;2023-03-04T19:10:13;98241.81;;;4.21;75.32
34979;BME280;21185;50.978;13.720;2023-03-04T19:15:19;98252.06;;;4.21;75.38
34979;BME280;21185;50.978;13.720;2023-03-04T19:20:21;98235.84;;;4.21;75.35
34979;BME280;21185;50.978;13.720;2023-03-04T19:25:23;98245.44;;;4.19;75.23
34979;BME280;21185;50.978;13.720;2023-03-04T19:30:25;98249.88;;;4.17;75.37
34979;BME280;21185;50.978;13.720;2023-03-04T19:35:27;98235.53;;;4.14;75.24
34979;BME280;21185;50.978;13.720;2023-03-04T19:40:29;98242.53;;;4.12;75.38
34979;BME280;21185;50.978;13.720;2023-03-04T19:45:31;98243.34;;;4.13;75.34
34979;BME280;21185;50.978;13.720;2023-03-04T19:50:33;98252.00;;;4.12;75.32
34979;BME280;21185;50.978;13.720;2023-03-04T19:55:36;98249.56;;;4.10;75.34
34979;BME280;21185;50.978;13.720;2023-03-04T20:00:38;98258.19;;;4.09;75.47
34979;BME280;21185;50.978;13.720;2023-03-04T20:05:40;98260.19;;;4.06;75.43
34979;BME280;21185;50.978;13.720;2023-03-04T20:10:42;98261.38;;;4.02;75.45
34979;BME280;21185;50.978;13.720;2023-03-04T20:15:44;98261.59;;;3.99;75.79
34979;BME280;21185;50.978;13.720;2023-03-04T20:20:46;98264.31;;;3.97;75.27
34979;BME280;21185;50.978;13.720;2023-03-04T20:25:49;98272.13;;;3.96;75.56
34979;BME280;21185;50.978;13.720;2023-03-04T20:30:51;98269.78;;;3.93;75.53
34979;BME280;21185;50.978;13.720;2023-03-04T20:35:54;98261.63;;;3.87;75.78
34979;BME280;21185;50.978;13.720;2023-03-04T20:40:56;98269.59;;;3.84;76.15
34979;BME280;21185;50.978;13.720;2023-03-04T20:46:24;98263.88;;;3.81;76.38
34979;BME280;21185;50.978;13.720;2023-03-04T20:51:28;98261.44;;;3.79;76.39
34979;BME280;21185;50.978;13.720;2023-03-04T20:56:31;98251.28;;;3.78;76.39
34979;BME280;21185;50.978;13.720;2023-03-04T21:01:35;98249.53;;;3.78;76.33
34979;BME280;21185;50.978;13.720;2023-03-04T21:06:37;98253.84;;;3.78;76.30
34979;BME280;21185;50.978;13.720;2023-03-04T21:11:41;98258.16;;;3.77;76.33
34979;BME280;21185;50.978;13.720;2023-03-04T21:16:43;98245.56;;;3.74;76.26
34979;BME280;21185;50.978;13.720;2023-03-04T21:21:46;98249.88;;;3.74;76.52
34979;BME280;21185;50.978;13.720;2023-03-04T21:26:49;98250.94;;;3.71;76.08
34979;BME280;21185;50.978;13.720;2023-03-04T21:36:59;98251.06;;;3.70;76.44
34979;BME280;21185;50.978;13.720;2023-03-04T21:42:02;98250.25;;;3.69;76.36
34979;BME280;21185;50.978;13.720;2023-03-04T21:47:04;98241.72;;;3.69;76.26
34979;BME280;21185;50.978;13.720;2023-03-04T21:52:06;98239.16;;;3.69;76.40
34979;BME280;21185;50.978;13.720;2023-03-04T21:57:08;98233.22;;;3.68;76.29
34979;BME280;21185;50.978;13.720;2023-03-04T22:02:14;98225.41;;;3.70;76.13
34979;BME280;21185;50.978;13.720;2023-03-04T22:07:16;98226.44;;;3.67;75.81
34979;BME280;21185;50.978;13.720;2023-03-04T22:12:18;98229.94;;;3.66;75.97
34979;BME280;21185;50.978;13.720;2023-03-04T22:17:20;98220.75;;;3.64;75.68
34979;BME280;21185;50.978;13.720;2023-03-04T22:22:22;98213.16;;;3.62;75.82
34979;BME280;21185;50.978;13.720;2023-03-04T22:27:24;98203.72;;;3.63;75.61
34979;BME280;21185;50.978;13.720;2023-03-04T22:32:26;98206.03;;;3.66;75.65
34979;BME280;21185;50.978;13.720;2023-03-04T22:37:28;98209.44;;;3.66;75.56
34979;BME280;21185;50.978;13.720;2023-03-04T22:42:30;98208.59;;;3.66;75.66
34979;BME280;21185;50.978;13.720;2023-03-04T22:47:32;98200.22;;;3.64;75.63
34979;BME280;21185;50.978;13.720;2023-03-04T22:52:34;98197.66;;;3.64;75.56
34979;BME280;21185;50.978;13.720;2023-03-04T22:57:36;98202.09;;;3.62;75.65
34979;BME280;21185;50.978;13.720;2023-03-04T23:02:38;98198.00;;;3.59;75.60
34979;BME280;21185;50.978;13.720;2023-03-04T23:07:40;98195.69;;;3.56;75.63
34979;BME280;21185;50.978;13.720;2023-03-04T23:12:42;98197.69;;;3.52;75.62
34979;BME280;21185;50.978;13.720;2023-03-04T23:17:45;98196.97;;;3.50;75.67
34979;BME280;21185;50.978;13.720;2023-03-04T23:22:47;98192.09;;;3.47;75.58
34979;BME280;21185;50.978;13.720;2023-03-04T23:27:49;98193.03;;;3.46;75.57
34979;BME280;21185;50.978;13.720;2023-03-04T23:32:51;98192.22;;;3.46;75.57
34979;BME280;21185;50.978;13.720;2023-03-04T23:37:53;98187.31;;;3.43;75.40
34979;BME280;21185;50.978;13.720;2023-03-04T23:42:55;98180.56;;;3.42;75.31
34979;BME280;21185;50.978;13.720;2023-03-04T23:47:57;98185.00;;;3.40;75.13
34979;BME280;21185;50.978;13.720;2023-03-04T23:52:59;98175.78;;;3.37;74.88
34979;BME280;21185;50.978;13.720;2023-03-04T23:58:01;98177.53;;;3.37;74.78
